Pierz, Minnesota
Current Conditions -  °F | °C
As of 4:18 PM on Tuesday 25 Nov 2014 (Local Time) from KLXL Reporting Station
Overcast Overcast  
Wind Chill: 13°   Ceiling: 3300
Heat Index: 19°   Visibility: 10mi
Dew Point:   Wind: 5mph
Humidity: 63%   Direction: 130°SE
Pressure: 29.99"   Gusts: NA
Location:  45.98°N, 94.1°W
Report Text: KLXL 252218Z AUTO 13004KT 10SM OVC033 M07/M13 A2999 RMK AO2
Loading
Personal Weather Stations






























Interactive Weather Map New forecast layout! Learn more

10-Day Weather Forecast

Advertisements
Track Severe Weather on mobile